sensor_id;sensor_type;location;lat;lon;timestamp;P1;durP1;ratioP1;P2;durP2;ratioP2
59388;SDS011;51830;45.202;19.720;2023-06-01T00:02:09;13.55;;;4.00;;
59388;SDS011;51830;45.202;19.720;2023-06-01T00:04:37;16.40;;;4.32;;
59388;SDS011;51830;45.202;19.720;2023-06-01T00:07:06;13.65;;;3.90;;
59388;SDS011;51830;45.202;19.720;2023-06-01T00:09:40;13.90;;;4.40;;
59388;SDS011;51830;45.202;19.720;2023-06-01T00:12:07;13.48;;;3.80;;
59388;SDS011;51830;45.202;19.720;2023-06-01T00:14:33;14.50;;;4.20;;
59388;SDS011;51830;45.202;19.720;2023-06-01T00:17:00;14.55;;;3.88;;
59388;SDS011;51830;45.202;19.720;2023-06-01T00:19:30;14.70;;;3.90;;
59388;SDS011;51830;45.202;19.720;2023-06-01T00:21:57;15.05;;;3.95;;
59388;SDS011;51830;45.202;19.720;2023-06-01T00:24:23;13.82;;;3.88;;
59388;SDS011;51830;45.202;19.720;2023-06-01T00:26:51;14.40;;;4.00;;
59388;SDS011;51830;45.202;19.720;2023-06-01T00:29:17;15.02;;;4.50;;
59388;SDS011;51830;45.202;19.720;2023-06-01T00:31:52;13.48;;;3.88;;
59388;SDS011;51830;45.202;19.720;2023-06-01T00:34:19;11.25;;;3.38;;
59388;SDS011;51830;45.202;19.720;2023-06-01T00:36:45;14.95;;;3.80;;
59388;SDS011;51830;45.202;19.720;2023-06-01T00:39:11;14.55;;;4.00;;
59388;SDS011;51830;45.202;19.720;2023-06-01T00:41:37;17.40;;;4.85;;
59388;SDS011;51830;45.202;19.720;2023-06-01T00:44:03;14.75;;;3.63;;
59388;SDS011;51830;45.202;19.720;2023-06-01T00:46:30;14.57;;;4.18;;
59388;SDS011;51830;45.202;19.720;2023-06-01T00:48:57;14.00;;;4.00;;
59388;SDS011;51830;45.202;19.720;2023-06-01T00:51:23;15.50;;;4.30;;
59388;SDS011;51830;45.202;19.720;2023-06-01T00:53:50;18.55;;;4.38;;
59388;SDS011;51830;45.202;19.720;2023-06-01T00:56:19;15.00;;;3.95;;
59388;SDS011;51830;45.202;19.720;2023-06-01T00:58:46;15.40;;;4.00;;
59388;SDS011;51830;45.202;19.720;2023-06-01T01:01:12;13.27;;;3.75;;
59388;SDS011;51830;45.202;19.720;2023-06-01T01:03:47;13.70;;;3.88;;
59388;SDS011;51830;45.202;19.720;2023-06-01T01:08:50;15.23;;;3.95;;
59388;SDS011;51830;45.202;19.720;2023-06-01T01:11:21;14.00;;;4.03;;
59388;SDS011;51830;45.202;19.720;2023-06-01T01:13:52;15.57;;;4.30;;
59388;SDS011;51830;45.202;19.720;2023-06-01T01:16:29;16.13;;;4.18;;
59388;SDS011;51830;45.202;19.720;2023-06-01T01:21:38;15.25;;;4.07;;
59388;SDS011;51830;45.202;19.720;2023-06-01T01:24:23;13.02;;;3.90;;
59388;SDS011;51830;45.202;19.720;2023-06-01T01:27:04;14.45;;;4.28;;
59388;SDS011;51830;45.202;19.720;2023-06-01T01:29:33;14.73;;;4.25;;
59388;SDS011;51830;45.202;19.720;2023-06-01T01:32:00;14.13;;;3.90;;
59388;SDS011;51830;45.202;19.720;2023-06-01T01:34:27;14.32;;;3.95;;
59388;SDS011;51830;45.202;19.720;2023-06-01T01:36:54;13.35;;;3.60;;
59388;SDS011;51830;45.202;19.720;2023-06-01T01:39:21;15.82;;;3.97;;
59388;SDS011;51830;45.202;19.720;2023-06-01T01:41:47;14.63;;;3.90;;
59388;SDS011;51830;45.202;19.720;2023-06-01T01:44:13;14.15;;;4.13;;
59388;SDS011;51830;45.202;19.720;2023-06-01T01:51:57;15.40;;;4.13;;
59388;SDS011;51830;45.202;19.720;2023-06-01T01:54:28;16.73;;;4.15;;
59388;SDS011;51830;45.202;19.720;2023-06-01T01:56:56;12.57;;;3.88;;
59388;SDS011;51830;45.202;19.720;2023-06-01T01:59:32;14.13;;;4.10;;
59388;SDS011;51830;45.202;19.720;2023-06-01T02:02:07;13.48;;;3.40;;
59388;SDS011;51830;45.202;19.720;2023-06-01T02:04:43;15.48;;;3.97;;
59388;SDS011;51830;45.202;19.720;2023-06-01T02:07:11;19.13;;;4.20;;
59388;SDS011;51830;45.202;19.720;2023-06-01T02:09:38;12.70;;;3.53;;
59388;SDS011;51830;45.202;19.720;2023-06-01T02:12:04;14.73;;;3.70;;
59388;SDS011;51830;45.202;19.720;2023-06-01T02:14:31;14.07;;;3.83;;
59388;SDS011;51830;45.202;19.720;2023-06-01T02:16:57;16.70;;;4.18;;
59388;SDS011;51830;45.202;19.720;2023-06-01T02:19:26;13.25;;;3.60;;
59388;SDS011;51830;45.202;19.720;2023-06-01T02:21:52;15.20;;;3.70;;
59388;SDS011;51830;45.202;19.720;2023-06-01T02:24:18;15.10;;;3.92;;
59388;SDS011;51830;45.202;19.720;2023-06-01T02:26:47;15.00;;;4.18;;
59388;SDS011;51830;45.202;19.720;2023-06-01T02:29:17;15.20;;;4.00;;
59388;SDS011;51830;45.202;19.720;2023-06-01T02:31:47;14.38;;;3.95;;
59388;SDS011;51830;45.202;19.720;2023-06-01T02:34:13;15.43;;;4.22;;
59388;SDS011;51830;45.202;19.720;2023-06-01T02:36:39;12.50;;;3.63;;
59388;SDS011;51830;45.202;19.720;2023-06-01T02:39:06;15.25;;;4.13;;
59388;SDS011;51830;45.202;19.720;2023-06-01T02:41:32;14.38;;;3.97;;
59388;SDS011;51830;45.202;19.720;2023-06-01T02:43:58;15.40;;;4.20;;
59388;SDS011;51830;45.202;19.720;2023-06-01T02:46:24;14.50;;;4.05;;
59388;SDS011;51830;45.202;19.720;2023-06-01T02:48:51;14.80;;;4.40;;
59388;SDS011;51830;45.202;19.720;2023-06-01T02:51:18;14.30;;;3.88;;
59388;SDS011;51830;45.202;19.720;2023-06-01T02:53:44;14.98;;;4.47;;
59388;SDS011;51830;45.202;19.720;2023-06-01T02:56:14;16.42;;;4.30;;
59388;SDS011;51830;45.202;19.720;2023-06-01T02:58:40;12.57;;;3.75;;
59388;SDS011;51830;45.202;19.720;2023-06-01T03:01:07;15.85;;;4.15;;
59388;SDS011;51830;45.202;19.720;2023-06-01T03:03:37;14.63;;;4.20;;
59388;SDS011;51830;45.202;19.720;2023-06-01T03:06:04;15.50;;;4.07;;
59388;SDS011;51830;45.202;19.720;2023-06-01T03:08:31;14.10;;;3.90;;
59388;SDS011;51830;45.202;19.720;2023-06-01T03:10:59;13.85;;;4.32;;
59388;SDS011;51830;45.202;19.720;2023-06-01T03:13:25;13.15;;;3.83;;
59388;SDS011;51830;45.202;19.720;2023-06-01T03:15:52;16.23;;;4.45;;
59388;SDS011;51830;45.202;19.720;2023-06-01T03:18:18;14.40;;;4.18;;
59388;SDS011;51830;45.202;19.720;2023-06-01T03:20:44;18.90;;;4.90;;
59388;SDS011;51830;45.202;19.720;2023-06-01T03:23:12;15.80;;;4.65;;
59388;SDS011;51830;45.202;19.720;2023-06-01T03:25:39;13.77;;;4.03;;
59388;SDS011;51830;45.202;19.720;2023-06-01T03:28:05;15.90;;;4.60;;
59388;SDS011;51830;45.202;19.720;2023-06-01T03:30:31;14.63;;;3.85;;
59388;SDS011;51830;45.202;19.720;2023-06-01T03:32:57;13.15;;;3.83;;
59388;SDS011;51830;45.202;19.720;2023-06-01T03:35:24;14.52;;;4.40;;
59388;SDS011;51830;45.202;19.720;2023-06-01T03:37:50;16.65;;;4.85;;
59388;SDS011;51830;45.202;19.720;2023-06-01T03:40:16;15.73;;;4.82;;
59388;SDS011;51830;45.202;19.720;2023-06-01T03:42:46;15.63;;;3.70;;
59388;SDS011;51830;45.202;19.720;2023-06-01T03:45:13;16.52;;;4.68;;
59388;SDS011;51830;45.202;19.720;2023-06-01T03:47:39;14.35;;;4.20;;
59388;SDS011;51830;45.202;19.720;2023-06-01T03:50:06;15.43;;;4.82;;
59388;SDS011;51830;45.202;19.720;2023-06-01T03:52:34;17.30;;;4.70;;
59388;SDS011;51830;45.202;19.720;2023-06-01T03:55:00;15.30;;;4.32;;
59388;SDS011;51830;45.202;19.720;2023-06-01T03:57:27;15.07;;;4.50;;
59388;SDS011;51830;45.202;19.720;2023-06-01T03:59:53;13.60;;;4.15;;
59388;SDS011;51830;45.202;19.720;2023-06-01T04:02:20;14.48;;;4.35;;
59388;SDS011;51830;45.202;19.720;2023-06-01T04:04:48;13.43;;;3.83;;
59388;SDS011;51830;45.202;19.720;2023-06-01T04:07:15;14.13;;;4.30;;
59388;SDS011;51830;45.202;19.720;2023-06-01T04:09:44;15.00;;;4.32;;
59388;SDS011;51830;45.202;19.720;2023-06-01T04:12:13;22.25;;;4.60;;
59388;SDS011;51830;45.202;19.720;2023-06-01T04:14:40;16.52;;;3.97;;
59388;SDS011;51830;45.202;19.720;2023-06-01T04:17:06;17.60;;;4.50;;
59388;SDS011;51830;45.202;19.720;2023-06-01T04:19:37;15.23;;;4.40;;
59388;SDS011;51830;45.202;19.720;2023-06-01T04:22:04;15.67;;;4.23;;
59388;SDS011;51830;45.202;19.720;2023-06-01T04:24:31;13.90;;;4.05;;
59388;SDS011;51830;45.202;19.720;2023-06-01T04:26:57;14.73;;;4.30;;
59388;SDS011;51830;45.202;19.720;2023-06-01T04:29:24;15.20;;;3.95;;
59388;SDS011;51830;45.202;19.720;2023-06-01T04:31:50;18.85;;;4.38;;
59388;SDS011;51830;45.202;19.720;2023-06-01T04:34:16;15.02;;;4.35;;
59388;SDS011;51830;45.202;19.720;2023-06-01T04:36:43;17.00;;;4.72;;
59388;SDS011;51830;45.202;19.720;2023-06-01T04:39:09;13.60;;;4.22;;
59388;SDS011;51830;45.202;19.720;2023-06-01T04:41:35;15.30;;;4.60;;
59388;SDS011;51830;45.202;19.720;2023-06-01T04:44:02;14.07;;;4.15;;
59388;SDS011;51830;45.202;19.720;2023-06-01T04:46:33;15.30;;;4.18;;
59388;SDS011;51830;45.202;19.720;2023-06-01T04:49:00;15.07;;;4.20;;
59388;SDS011;51830;45.202;19.720;2023-06-01T04:51:26;13.27;;;3.70;;
59388;SDS011;51830;45.202;19.720;2023-06-01T04:53:54;14.38;;;4.13;;
59388;SDS011;51830;45.202;19.720;2023-06-01T04:56:21;14.40;;;4.47;;
59388;SDS011;51830;45.202;19.720;2023-06-01T04:58:52;14.57;;;4.20;;
59388;SDS011;51830;45.202;19.720;2023-06-01T05:01:20;14.68;;;4.22;;
59388;SDS011;51830;45.202;19.720;2023-06-01T05:03:50;14.55;;;4.35;;
59388;SDS011;51830;45.202;19.720;2023-06-01T05:06:17;15.70;;;5.18;;
59388;SDS011;51830;45.202;19.720;2023-06-01T05:08:43;16.25;;;4.28;;
59388;SDS011;51830;45.202;19.720;2023-06-01T05:11:10;16.10;;;4.22;;
59388;SDS011;51830;45.202;19.720;2023-06-01T05:13:37;17.73;;;4.78;;
59388;SDS011;51830;45.202;19.720;2023-06-01T05:16:04;15.07;;;4.43;;
59388;SDS011;51830;45.202;19.720;2023-06-01T05:18:34;15.52;;;4.53;;
59388;SDS011;51830;45.202;19.720;2023-06-01T05:21:01;14.65;;;4.05;;
59388;SDS011;51830;45.202;19.720;2023-06-01T05:23:28;14.95;;;4.75;;
59388;SDS011;51830;45.202;19.720;2023-06-01T05:25:54;15.20;;;4.53;;
59388;SDS011;51830;45.202;19.720;2023-06-01T05:30:53;15.45;;;4.55;;
59388;SDS011;51830;45.202;19.720;2023-06-01T05:33:19;14.52;;;4.70;;
59388;SDS011;51830;45.202;19.720;2023-06-01T05:35:46;15.30;;;4.50;;
59388;SDS011;51830;45.202;19.720;2023-06-01T05:38:12;18.88;;;4.60;;
59388;SDS011;51830;45.202;19.720;2023-06-01T05:40:38;16.02;;;4.90;;
59388;SDS011;51830;45.202;19.720;2023-06-01T05:43:04;17.48;;;4.13;;
59388;SDS011;51830;45.202;19.720;2023-06-01T05:45:32;17.73;;;4.10;;
59388;SDS011;51830;45.202;19.720;2023-06-01T05:47:59;16.90;;;4.55;;
59388;SDS011;51830;45.202;19.720;2023-06-01T05:50:25;16.65;;;4.50;;
59388;SDS011;51830;45.202;19.720;2023-06-01T05:52:51;16.50;;;5.18;;
59388;SDS011;51830;45.202;19.720;2023-06-01T05:55:18;14.80;;;4.40;;
59388;SDS011;51830;45.202;19.720;2023-06-01T05:57:44;15.10;;;4.43;;
59388;SDS011;51830;45.202;19.720;2023-06-01T06:00:11;15.55;;;4.43;;
59388;SDS011;51830;45.202;19.720;2023-06-01T06:02:41;18.27;;;5.20;;
59388;SDS011;51830;45.202;19.720;2023-06-01T06:05:08;15.35;;;4.35;;
59388;SDS011;51830;45.202;19.720;2023-06-01T06:07:34;14.32;;;4.30;;
59388;SDS011;51830;45.202;19.720;2023-06-01T06:10:01;18.38;;;4.55;;
59388;SDS011;51830;45.202;19.720;2023-06-01T06:12:27;16.52;;;4.82;;
59388;SDS011;51830;45.202;19.720;2023-06-01T06:14:53;14.80;;;4.40;;
59388;SDS011;51830;45.202;19.720;2023-06-01T06:17:20;15.93;;;4.38;;
59388;SDS011;51830;45.202;19.720;2023-06-01T06:19:46;16.13;;;4.55;;
59388;SDS011;51830;45.202;19.720;2023-06-01T06:22:14;15.70;;;4.55;;
59388;SDS011;51830;45.202;19.720;2023-06-01T06:24:41;14.90;;;4.45;;
59388;SDS011;51830;45.202;19.720;2023-06-01T06:27:08;17.08;;;4.60;;
59388;SDS011;51830;45.202;19.720;2023-06-01T06:29:34;14.63;;;4.03;;
59388;SDS011;51830;45.202;19.720;2023-06-01T06:32:01;14.73;;;4.70;;
59388;SDS011;51830;45.202;19.720;2023-06-01T06:34:27;16.52;;;4.72;;
59388;SDS011;51830;45.202;19.720;2023-06-01T06:37:01;15.38;;;4.43;;
59388;SDS011;51830;45.202;19.720;2023-06-01T06:39:27;16.05;;;4.72;;
59388;SDS011;51830;45.202;19.720;2023-06-01T06:41:53;14.50;;;4.53;;
59388;SDS011;51830;45.202;19.720;2023-06-01T06:44:19;16.90;;;5.05;;
59388;SDS011;51830;45.202;19.720;2023-06-01T06:46:45;18.08;;;4.72;;
59388;SDS011;51830;45.202;19.720;2023-06-01T06:49:13;20.65;;;4.43;;
59388;SDS011;51830;45.202;19.720;2023-06-01T06:51:39;16.60;;;4.45;;
59388;SDS011;51830;45.202;19.720;2023-06-01T06:54:05;15.73;;;4.97;;
59388;SDS011;51830;45.202;19.720;2023-06-01T06:56:31;15.82;;;4.90;;
59388;SDS011;51830;45.202;19.720;2023-06-01T06:58:58;15.63;;;4.82;;
59388;SDS011;51830;45.202;19.720;2023-06-01T07:01:25;16.48;;;4.45;;
59388;SDS011;51830;45.202;19.720;2023-06-01T07:03:52;15.18;;;4.57;;
59388;SDS011;51830;45.202;19.720;2023-06-01T07:06:18;15.43;;;5.07;;
59388;SDS011;51830;45.202;19.720;2023-06-01T07:08:45;16.67;;;4.88;;
59388;SDS011;51830;45.202;19.720;2023-06-01T07:11:11;14.93;;;4.40;;
59388;SDS011;51830;45.202;19.720;2023-06-01T07:13:37;16.58;;;4.40;;
59388;SDS011;51830;45.202;19.720;2023-06-01T07:16:03;18.67;;;4.95;;
59388;SDS011;51830;45.202;19.720;2023-06-01T07:18:30;16.10;;;4.93;;
59388;SDS011;51830;45.202;19.720;2023-06-01T07:20:57;14.13;;;4.38;;
59388;SDS011;51830;45.202;19.720;2023-06-01T07:23:23;15.00;;;4.50;;
59388;SDS011;51830;45.202;19.720;2023-06-01T07:25:49;16.05;;;4.68;;
59388;SDS011;51830;45.202;19.720;2023-06-01T07:28:16;14.98;;;4.60;;
59388;SDS011;51830;45.202;19.720;2023-06-01T07:30:42;15.63;;;4.40;;
59388;SDS011;51830;45.202;19.720;2023-06-01T07:33:08;16.33;;;4.60;;
59388;SDS011;51830;45.202;19.720;2023-06-01T07:35:34;19.60;;;4.90;;
59388;SDS011;51830;45.202;19.720;2023-06-01T07:38:01;17.23;;;4.35;;
59388;SDS011;51830;45.202;19.720;2023-06-01T07:40:28;16.83;;;4.43;;
59388;SDS011;51830;45.202;19.720;2023-06-01T07:42:55;18.38;;;4.68;;
59388;SDS011;51830;45.202;19.720;2023-06-01T07:45:21;16.38;;;4.78;;
59388;SDS011;51830;45.202;19.720;2023-06-01T07:47:48;16.95;;;4.68;;
59388;SDS011;51830;45.202;19.720;2023-06-01T07:50:15;15.73;;;4.82;;
59388;SDS011;51830;45.202;19.720;2023-06-01T07:52:41;15.98;;;5.05;;
59388;SDS011;51830;45.202;19.720;2023-06-01T07:55:07;16.73;;;4.75;;
59388;SDS011;51830;45.202;19.720;2023-06-01T07:57:36;14.52;;;4.75;;
59388;SDS011;51830;45.202;19.720;2023-06-01T08:00:03;15.20;;;4.30;;
59388;SDS011;51830;45.202;19.720;2023-06-01T08:02:34;16.92;;;4.90;;
59388;SDS011;51830;45.202;19.720;2023-06-01T08:05:01;15.63;;;4.65;;
59388;SDS011;51830;45.202;19.720;2023-06-01T08:07:27;17.50;;;5.13;;
59388;SDS011;51830;45.202;19.720;2023-06-01T08:09:55;15.30;;;4.32;;
59388;SDS011;51830;45.202;19.720;2023-06-01T08:12:22;15.45;;;4.50;;
59388;SDS011;51830;45.202;19.720;2023-06-01T08:14:48;13.35;;;3.95;;
59388;SDS011;51830;45.202;19.720;2023-06-01T08:17:19;14.40;;;4.18;;
59388;SDS011;51830;45.202;19.720;2023-06-01T08:19:45;15.15;;;4.55;;
59388;SDS011;51830;45.202;19.720;2023-06-01T08:22:12;12.80;;;3.70;;
59388;SDS011;51830;45.202;19.720;2023-06-01T08:24:38;15.00;;;4.47;;
59388;SDS011;51830;45.202;19.720;2023-06-01T08:27:20;15.48;;;4.25;;
59388;SDS011;51830;45.202;19.720;2023-06-01T08:29:47;14.15;;;3.95;;
59388;SDS011;51830;45.202;19.720;2023-06-01T08:32:13;15.65;;;4.40;;
59388;SDS011;51830;45.202;19.720;2023-06-01T08:34:40;13.23;;;3.85;;
59388;SDS011;51830;45.202;19.720;2023-06-01T08:37:06;14.07;;;4.40;;
59388;SDS011;51830;45.202;19.720;2023-06-01T08:39:32;14.75;;;4.07;;
59388;SDS011;51830;45.202;19.720;2023-06-01T08:44:40;14.27;;;4.00;;
59388;SDS011;51830;45.202;19.720;2023-06-01T08:50:03;16.67;;;4.20;;
59388;SDS011;51830;45.202;19.720;2023-06-01T08:52:29;15.70;;;4.32;;
59388;SDS011;51830;45.202;19.720;2023-06-01T08:55:00;14.18;;;4.15;;
59388;SDS011;51830;45.202;19.720;2023-06-01T08:57:30;14.73;;;4.50;;
59388;SDS011;51830;45.202;19.720;2023-06-01T08:59:57;14.82;;;4.43;;
59388;SDS011;51830;45.202;19.720;2023-06-01T09:02:24;15.02;;;4.20;;
59388;SDS011;51830;45.202;19.720;2023-06-01T09:04:50;13.52;;;4.10;;
59388;SDS011;51830;45.202;19.720;2023-06-01T09:07:17;16.15;;;4.55;;
59388;SDS011;51830;45.202;19.720;2023-06-01T09:09:44;15.52;;;4.55;;
59388;SDS011;51830;45.202;19.720;2023-06-01T09:14:46;17.73;;;5.00;;
59388;SDS011;51830;45.202;19.720;2023-06-01T09:17:13;15.02;;;4.50;;
59388;SDS011;51830;45.202;19.720;2023-06-01T09:19:43;15.88;;;4.63;;
59388;SDS011;51830;45.202;19.720;2023-06-01T09:22:09;15.23;;;4.40;;
59388;SDS011;51830;45.202;19.720;2023-06-01T09:24:35;14.20;;;4.38;;
59388;SDS011;51830;45.202;19.720;2023-06-01T09:27:01;15.02;;;4.60;;
59388;SDS011;51830;45.202;19.720;2023-06-01T09:29:29;17.98;;;5.18;;
59388;SDS011;51830;45.202;19.720;2023-06-01T09:31:55;15.45;;;4.72;;
59388;SDS011;51830;45.202;19.720;2023-06-01T09:34:21;14.68;;;4.53;;
59388;SDS011;51830;45.202;19.720;2023-06-01T09:36:52;15.27;;;4.85;;
59388;SDS011;51830;45.202;19.720;2023-06-01T09:39:19;16.02;;;5.80;;
59388;SDS011;51830;45.202;19.720;2023-06-01T09:44:21;20.70;;;5.50;;
59388;SDS011;51830;45.202;19.720;2023-06-01T09:46:48;15.02;;;4.47;;
59388;SDS011;51830;45.202;19.720;2023-06-01T09:49:18;14.95;;;4.78;;
59388;SDS011;51830;45.202;19.720;2023-06-01T09:51:45;19.90;;;4.95;;
59388;SDS011;51830;45.202;19.720;2023-06-01T09:54:24;20.17;;;5.05;;
59388;SDS011;51830;45.202;19.720;2023-06-01T09:56:51;13.80;;;4.53;;
59388;SDS011;51830;45.202;19.720;2023-06-01T09:59:18;14.77;;;4.90;;
59388;SDS011;51830;45.202;19.720;2023-06-01T10:01:47;17.95;;;5.45;;
59388;SDS011;51830;45.202;19.720;2023-06-01T10:04:22;18.67;;;5.32;;
59388;SDS011;51830;45.202;19.720;2023-06-01T10:06:49;16.45;;;4.55;;
59388;SDS011;51830;45.202;19.720;2023-06-01T10:09:19;14.95;;;4.65;;
59388;SDS011;51830;45.202;19.720;2023-06-01T10:11:46;17.52;;;4.43;;
59388;SDS011;51830;45.202;19.720;2023-06-01T10:14:13;16.90;;;4.90;;
59388;SDS011;51830;45.202;19.720;2023-06-01T10:16:40;14.57;;;4.15;;
59388;SDS011;51830;45.202;19.720;2023-06-01T10:19:10;17.02;;;4.70;;
59388;SDS011;51830;45.202;19.720;2023-06-01T10:21:39;14.82;;;4.95;;
59388;SDS011;51830;45.202;19.720;2023-06-01T10:24:05;17.52;;;5.20;;
59388;SDS011;51830;45.202;19.720;2023-06-01T10:26:38;16.52;;;5.43;;
59388;SDS011;51830;45.202;19.720;2023-06-01T10:29:06;14.38;;;4.50;;
59388;SDS011;51830;45.202;19.720;2023-06-01T10:31:42;15.98;;;4.85;;
59388;SDS011;51830;45.202;19.720;2023-06-01T10:34:10;16.00;;;5.28;;
59388;SDS011;51830;45.202;19.720;2023-06-01T10:37:22;16.02;;;5.00;;
59388;SDS011;51830;45.202;19.720;2023-06-01T10:39:29;16.35;;;4.80;;
59388;SDS011;51830;45.202;19.720;2023-06-01T10:41:56;16.27;;;5.38;;
59388;SDS011;51830;45.202;19.720;2023-06-01T10:45:08;16.27;;;5.20;;
59388;SDS011;51830;45.202;19.720;2023-06-01T10:52:30;16.10;;;5.05;;
59388;SDS011;51830;45.202;19.720;2023-06-01T10:57:43;14.98;;;4.70;;
59388;SDS011;51830;45.202;19.720;2023-06-01T11:00:14;15.32;;;4.60;;
59388;SDS011;51830;45.202;19.720;2023-06-01T11:02:44;13.60;;;3.85;;
59388;SDS011;51830;45.202;19.720;2023-06-01T11:07:56;14.35;;;4.35;;
59388;SDS011;51830;45.202;19.720;2023-06-01T11:13:11;21.90;;;6.53;;
59388;SDS011;51830;45.202;19.720;2023-06-01T11:15:37;16.38;;;4.93;;
59388;SDS011;51830;45.202;19.720;2023-06-01T11:20:52;21.35;;;4.93;;
59388;SDS011;51830;45.202;19.720;2023-06-01T11:23:19;18.83;;;5.78;;
59388;SDS011;51830;45.202;19.720;2023-06-01T11:25:45;16.90;;;5.65;;
59388;SDS011;51830;45.202;19.720;2023-06-01T11:28:13;20.05;;;6.22;;
59388;SDS011;51830;45.202;19.720;2023-06-01T11:30:39;19.08;;;6.55;;
59388;SDS011;51830;45.202;19.720;2023-06-01T11:33:05;19.13;;;6.05;;
59388;SDS011;51830;45.202;19.720;2023-06-01T11:35:32;17.98;;;5.97;;
59388;SDS011;51830;45.202;19.720;2023-06-01T11:37:58;18.42;;;7.50;;
59388;SDS011;51830;45.202;19.720;2023-06-01T11:40:24;18.13;;;7.15;;
59388;SDS011;51830;45.202;19.720;2023-06-01T11:42:50;19.27;;;6.45;;
59388;SDS011;51830;45.202;19.720;2023-06-01T11:45:17;16.58;;;5.88;;
59388;SDS011;51830;45.202;19.720;2023-06-01T11:47:43;16.67;;;6.35;;
59388;SDS011;51830;45.202;19.720;2023-06-01T11:50:20;17.25;;;6.57;;
59388;SDS011;51830;45.202;19.720;2023-06-01T11:52:46;16.58;;;6.32;;
59388;SDS011;51830;45.202;19.720;2023-06-01T11:55:13;17.02;;;5.22;;
59388;SDS011;51830;45.202;19.720;2023-06-01T11:57:42;15.80;;;6.00;;
59388;SDS011;51830;45.202;19.720;2023-06-01T12:00:11;16.48;;;5.88;;
59388;SDS011;51830;45.202;19.720;2023-06-01T12:02:39;18.13;;;6.65;;
59388;SDS011;51830;45.202;19.720;2023-06-01T12:05:07;19.35;;;7.18;;
59388;SDS011;51830;45.202;19.720;2023-06-01T12:07:43;19.83;;;6.88;;
59388;SDS011;51830;45.202;19.720;2023-06-01T12:10:13;18.25;;;6.43;;
59388;SDS011;51830;45.202;19.720;2023-06-01T12:12:40;17.48;;;6.40;;
59388;SDS011;51830;45.202;19.720;2023-06-01T12:15:09;18.17;;;5.93;;
59388;SDS011;51830;45.202;19.720;2023-06-01T12:18:08;15.70;;;5.90;;
59388;SDS011;51830;45.202;19.720;2023-06-01T12:20:34;15.70;;;5.88;;
59388;SDS011;51830;45.202;19.720;2023-06-01T12:23:01;16.83;;;6.22;;
59388;SDS011;51830;45.202;19.720;2023-06-01T12:25:30;15.63;;;5.47;;
59388;SDS011;51830;45.202;19.720;2023-06-01T12:28:03;16.98;;;5.72;;
59388;SDS011;51830;45.202;19.720;2023-06-01T12:30:29;22.60;;;5.50;;
59388;SDS011;51830;45.202;19.720;2023-06-01T12:32:57;14.98;;;5.32;;
59388;SDS011;51830;45.202;19.720;2023-06-01T12:35:23;16.23;;;5.20;;
59388;SDS011;51830;45.202;19.720;2023-06-01T12:38:09;14.88;;;4.97;;
59388;SDS011;51830;45.202;19.720;2023-06-01T12:40:38;17.17;;;5.20;;
59388;SDS011;51830;45.202;19.720;2023-06-01T12:43:05;15.00;;;5.20;;
59388;SDS011;51830;45.202;19.720;2023-06-01T12:45:42;16.65;;;5.43;;
59388;SDS011;51830;45.202;19.720;2023-06-01T12:48:09;16.35;;;5.80;;
59388;SDS011;51830;45.202;19.720;2023-06-01T12:50:55;15.77;;;5.10;;
59388;SDS011;51830;45.202;19.720;2023-06-01T12:53:22;15.63;;;5.30;;
59388;SDS011;51830;45.202;19.720;2023-06-01T12:55:48;15.93;;;5.45;;
59388;SDS011;51830;45.202;19.720;2023-06-01T12:58:14;15.27;;;5.35;;
59388;SDS011;51830;45.202;19.720;2023-06-01T13:00:41;15.48;;;5.25;;
59388;SDS011;51830;45.202;19.720;2023-06-01T13:03:07;20.05;;;6.40;;
59388;SDS011;51830;45.202;19.720;2023-06-01T13:05:33;16.63;;;5.65;;
59388;SDS011;51830;45.202;19.720;2023-06-01T13:07:59;14.32;;;4.57;;
59388;SDS011;51830;45.202;19.720;2023-06-01T13:10:27;14.10;;;4.45;;
59388;SDS011;51830;45.202;19.720;2023-06-01T13:12:53;15.15;;;5.50;;
59388;SDS011;51830;45.202;19.720;2023-06-01T13:15:20;13.80;;;4.45;;
59388;SDS011;51830;45.202;19.720;2023-06-01T13:17:47;16.00;;;6.25;;
59388;SDS011;51830;45.202;19.720;2023-06-01T13:20:13;15.82;;;6.00;;
59388;SDS011;51830;45.202;19.720;2023-06-01T13:22:42;16.50;;;6.15;;
59388;SDS011;51830;45.202;19.720;2023-06-01T13:25:08;16.13;;;5.55;;
59388;SDS011;51830;45.202;19.720;2023-06-01T13:27:35;14.75;;;4.82;;
59388;SDS011;51830;45.202;19.720;2023-06-01T13:30:02;16.65;;;5.55;;
59388;SDS011;51830;45.202;19.720;2023-06-01T13:32:29;15.10;;;4.80;;
59388;SDS011;51830;45.202;19.720;2023-06-01T13:34:55;14.85;;;4.75;;
59388;SDS011;51830;45.202;19.720;2023-06-01T13:37:22;15.85;;;4.90;;
59388;SDS011;51830;45.202;19.720;2023-06-01T13:39:48;16.95;;;4.78;;
59388;SDS011;51830;45.202;19.720;2023-06-01T13:42:15;13.73;;;4.65;;
59388;SDS011;51830;45.202;19.720;2023-06-01T13:44:41;19.23;;;5.30;;
59388;SDS011;51830;45.202;19.720;2023-06-01T13:47:13;15.50;;;4.75;;
59388;SDS011;51830;45.202;19.720;2023-06-01T13:49:40;13.90;;;4.18;;
59388;SDS011;51830;45.202;19.720;2023-06-01T13:52:07;15.98;;;4.38;;
59388;SDS011;51830;45.202;19.720;2023-06-01T13:54:34;15.52;;;4.07;;
59388;SDS011;51830;45.202;19.720;2023-06-01T13:57:01;14.95;;;4.82;;
59388;SDS011;51830;45.202;19.720;2023-06-01T13:59:31;15.80;;;4.63;;
59388;SDS011;51830;45.202;19.720;2023-06-01T14:02:02;15.75;;;4.65;;
59388;SDS011;51830;45.202;19.720;2023-06-01T14:04:28;14.43;;;4.10;;
59388;SDS011;51830;45.202;19.720;2023-06-01T14:06:55;14.57;;;4.65;;
59388;SDS011;51830;45.202;19.720;2023-06-01T14:09:21;14.00;;;4.18;;
59388;SDS011;51830;45.202;19.720;2023-06-01T14:11:48;14.45;;;4.40;;
59388;SDS011;51830;45.202;19.720;2023-06-01T14:14:14;14.88;;;4.22;;
59388;SDS011;51830;45.202;19.720;2023-06-01T14:16:40;14.88;;;4.22;;
59388;SDS011;51830;45.202;19.720;2023-06-01T14:19:06;14.75;;;4.55;;
59388;SDS011;51830;45.202;19.720;2023-06-01T14:21:33;13.63;;;4.05;;
59388;SDS011;51830;45.202;19.720;2023-06-01T14:24:01;13.70;;;3.90;;
59388;SDS011;51830;45.202;19.720;2023-06-01T14:26:27;13.02;;;3.90;;
59388;SDS011;51830;45.202;19.720;2023-06-01T14:28:59;15.55;;;3.85;;
59388;SDS011;51830;45.202;19.720;2023-06-01T14:34:43;13.70;;;3.80;;
59388;SDS011;51830;45.202;19.720;2023-06-01T14:37:09;12.50;;;3.55;;
59388;SDS011;51830;45.202;19.720;2023-06-01T14:39:37;13.02;;;3.70;;
59388;SDS011;51830;45.202;19.720;2023-06-01T14:42:03;16.55;;;3.72;;
59388;SDS011;51830;45.202;19.720;2023-06-01T14:44:30;13.25;;;3.55;;
59388;SDS011;51830;45.202;19.720;2023-06-01T14:46:56;12.82;;;3.95;;
59388;SDS011;51830;45.202;19.720;2023-06-01T14:49:22;14.27;;;4.25;;
59388;SDS011;51830;45.202;19.720;2023-06-01T14:51:48;13.90;;;3.92;;
59388;SDS011;51830;45.202;19.720;2023-06-01T14:54:14;16.55;;;4.70;;
59388;SDS011;51830;45.202;19.720;2023-06-01T14:56:41;16.98;;;6.07;;
59388;SDS011;51830;45.202;19.720;2023-06-01T14:59:10;16.27;;;5.85;;
59388;SDS011;51830;45.202;19.720;2023-06-01T15:01:39;15.65;;;4.70;;
59388;SDS011;51830;45.202;19.720;2023-06-01T15:04:06;14.50;;;4.43;;
59388;SDS011;51830;45.202;19.720;2023-06-01T15:06:32;16.15;;;4.22;;
59388;SDS011;51830;45.202;19.720;2023-06-01T15:08:59;14.38;;;4.13;;